Terminal Aerodrome Forecast
Issued by NWS

Home | Current Version | Previous Version | Graphics & Text | Print | Product List | Glossary On
Versions: 1 2 3 4 5 6 7 8 9 10 11 12 13 14 15 16 17 18 19 20 21 22 23 24 25 26 27 28 29 30 31 32 33 34 35 36 37 38 39 40 41
000
FTUS43 KLOT 031400 AAA
TAFMDW
TAF AMD
KMDW 031400Z 0314/0412 19010KT P6SM BKN100
     FM031530 20014G21KT P6SM BKN100
     FM031900 21016G24KT P6SM VCSH BKN080
     FM040000 19013KT P6SM BKN080 PROB30 0407/0410 -SHRA OVC045
     FM041000 19012KT 5SM -SHRA VCTS OVC040CB=

USA.gov is the U.S. government's official web portal to all federal, state and local government web resources and services.